createdAt,value
2022-11-17T00:00:43.757Z,0.30
2022-11-17T00:03:15.582Z,0.43
2022-11-17T00:05:43.680Z,0.28
2022-11-17T00:08:11.315Z,0.40
2022-11-17T00:10:38.949Z,0.30
2022-11-17T00:13:25.204Z,0.63
2022-11-17T00:15:53.111Z,0.35
2022-11-17T00:18:39.484Z,0.45
2022-11-17T00:21:19.581Z,0.30
2022-11-17T00:23:48.295Z,0.35
2022-11-17T00:26:17.439Z,0.30
2022-11-17T00:28:45.304Z,0.32
2022-11-17T00:31:32.345Z,0.30
2022-11-17T00:34:05.423Z,0.25
2022-11-17T00:36:38.726Z,0.20
2022-11-17T00:39:07.003Z,0.35
2022-11-17T00:41:34.689Z,0.40
2022-11-17T00:44:02.504Z,0.40
2022-11-17T00:46:30.264Z,0.30
2022-11-17T00:48:58.040Z,0.38
2022-11-17T00:51:25.789Z,0.38
2022-11-17T00:53:53.759Z,0.52
2022-11-17T00:56:21.495Z,0.50
2022-11-17T00:58:49.468Z,0.20
2022-11-17T01:01:17.354Z,0.55
2022-11-17T01:03:45.132Z,0.40
2022-11-17T01:06:14.692Z,0.10
2022-11-17T01:08:42.494Z,81.50
2022-11-17T01:11:11.938Z,0.28
2022-11-17T01:13:40.256Z,0.15
2022-11-17T01:16:13.637Z,0.30
2022-11-17T01:18:41.949Z,0.20
2022-11-17T01:21:13.804Z,0.38
2022-11-17T01:23:43.946Z,0.30
2022-11-17T01:26:13.701Z,0.20
2022-11-17T01:28:41.507Z,0.30
2022-11-17T01:31:19.700Z,0.70
2022-11-17T01:33:47.481Z,0.40
2022-11-17T01:36:16.801Z,0.82
2022-11-17T01:38:44.954Z,0.28
2022-11-17T01:41:17.089Z,93.90
2022-11-17T01:43:46.359Z,94.40
2022-11-17T01:46:41.381Z,0.20
2022-11-17T01:51:55.703Z,0.55
2022-11-17T01:54:28.288Z,0.20
2022-11-17T01:56:58.037Z,0.90
2022-11-17T01:59:37.548Z,0.40
2022-11-17T02:02:05.228Z,0.93
2022-11-17T02:04:35.409Z,77.93
2022-11-17T02:07:21.859Z,0.20
2022-11-17T02:09:49.816Z,0.40
2022-11-17T02:12:17.883Z,0.98
2022-11-17T02:14:45.679Z,0.40
2022-11-17T02:17:14.448Z,0.40
2022-11-17T02:19:44.675Z,0.20
2022-11-17T02:22:50.394Z,0.25
2022-11-17T02:26:02.616Z,0.40
2022-11-17T02:28:29.944Z,103.57
2022-11-17T02:30:59.855Z,110.22
2022-11-17T02:33:44.416Z,105.28
2022-11-17T02:36:18.446Z,0.25
2022-11-17T02:38:52.135Z,0.00
2022-11-17T02:41:42.468Z,0.50
2022-11-17T02:44:23.746Z,0.22
2022-11-17T02:47:00.014Z,0.08
2022-11-17T02:49:33.526Z,0.30
2022-11-17T02:52:01.512Z,0.35
2022-11-17T02:54:31.538Z,0.40
2022-11-17T02:56:59.104Z,0.22
2022-11-17T02:59:31.367Z,0.30
2022-11-17T03:02:13.042Z,0.40
2022-11-17T03:04:53.266Z,0.20
2022-11-17T03:07:59.121Z,0.20
2022-11-17T03:10:44.746Z,0.30
2022-11-17T03:13:14.774Z,0.35
2022-11-17T03:15:55.261Z,0.22
2022-11-17T03:18:24.021Z,0.73
2022-11-17T03:21:06.011Z,0.30
2022-11-17T03:23:37.716Z,82.57
2022-11-17T03:26:11.606Z,76.68
2022-11-17T03:28:39.635Z,39.40
2022-11-17T03:31:09.366Z,76.00
2022-11-17T03:33:39.216Z,71.85
2022-11-17T03:36:13.795Z,81.30
2022-11-17T03:39:03.994Z,85.10
2022-11-17T03:41:36.534Z,78.78
2022-11-17T03:44:06.889Z,66.28
2022-11-17T03:46:37.353Z,72.07
2022-11-17T03:49:10.130Z,64.72
2022-11-17T03:51:38.474Z,0.30
2022-11-17T03:54:07.141Z,0.40
2022-11-17T03:56:46.432Z,62.83
2022-11-17T03:59:19.879Z,75.93
2022-11-17T04:01:47.510Z,86.75
2022-11-17T04:04:19.521Z,82.72
2022-11-17T04:06:47.425Z,82.65
2022-11-17T04:09:18.698Z,79.68
2022-11-17T04:12:07.203Z,74.93
2022-11-17T04:14:53.309Z,73.95
2022-11-17T04:17:20.914Z,80.30
2022-11-17T04:19:48.813Z,1.08
2022-11-17T04:22:16.583Z,42.92
2022-11-17T04:24:44.555Z,73.43
2022-11-17T04:27:30.861Z,1.00
2022-11-17T04:30:01.007Z,2.53
2022-11-17T04:32:28.407Z,70.40
2022-11-17T04:34:55.822Z,42.70
2022-11-17T04:37:23.496Z,72.85
2022-11-17T04:39:51.265Z,77.35
2022-11-17T04:42:19.078Z,1.33
2022-11-17T04:44:46.580Z,1.30
2022-11-17T04:47:15.039Z,2.55
2022-11-17T04:49:43.194Z,1.38
2022-11-17T04:52:10.954Z,1.15
2022-11-17T04:54:38.530Z,0.98
2022-11-17T04:57:06.267Z,1.80
2022-11-17T04:59:33.937Z,1.63
2022-11-17T05:02:05.839Z,1.15
2022-11-17T05:04:52.104Z,29.77
2022-11-17T05:07:19.735Z,56.40
2022-11-17T05:09:47.410Z,29.15
2022-11-17T05:12:33.287Z,1.52
2022-11-17T05:15:01.063Z,2.65
2022-11-17T05:17:28.588Z,42.20
2022-11-17T05:19:57.576Z,32.13
2022-11-17T05:22:44.741Z,1.30
2022-11-17T05:25:12.237Z,2.50
2022-11-17T05:27:40.120Z,2.10
2022-11-17T05:30:08.861Z,77.55
2022-11-17T05:32:36.234Z,53.65
2022-11-17T05:35:03.790Z,2.00
2022-11-17T05:37:31.287Z,62.85
2022-11-17T05:39:58.999Z,75.30
2022-11-17T05:42:26.673Z,77.90
2022-11-17T05:44:54.540Z,85.63
2022-11-17T05:47:22.163Z,78.80
2022-11-17T05:49:49.866Z,85.22
2022-11-17T05:52:17.742Z,89.75
2022-11-17T05:54:45.347Z,83.90
2022-11-17T05:57:14.783Z,84.10
2022-11-17T05:59:49.025Z,83.28
2022-11-17T06:02:30.102Z,79.50
2022-11-17T06:04:57.772Z,84.00
2022-11-17T06:07:25.196Z,72.28
2022-11-17T06:09:53.028Z,83.18
2022-11-17T06:12:20.829Z,82.05
2022-11-17T06:14:48.445Z,88.38
2022-11-17T06:17:27.260Z,3.67
2022-11-17T06:20:09.627Z,4.10
2022-11-17T06:22:37.600Z,92.25
2022-11-17T06:25:08.964Z,92.13
2022-11-17T06:27:37.202Z,4.78
2022-11-17T06:30:05.508Z,98.57
2022-11-17T06:32:35.200Z,54.70
2022-11-17T06:35:04.577Z,3.90
2022-11-17T06:37:32.185Z,81.30
2022-11-17T06:39:59.965Z,6.85
2022-11-17T06:42:46.375Z,50.75
2022-11-17T06:45:14.067Z,5.45
2022-11-17T06:47:41.697Z,66.10
2022-11-17T06:50:09.596Z,4.32
2022-11-17T06:52:37.195Z,24.65
2022-11-17T06:55:04.854Z,70.10
2022-11-17T06:57:32.535Z,4.13
2022-11-17T07:00:00.069Z,4.72
2022-11-17T07:02:27.551Z,5.80
2022-11-17T07:04:55.155Z,43.58
2022-11-17T07:07:22.999Z,5.28
2022-11-17T07:09:50.636Z,45.05
2022-11-17T07:12:18.418Z,76.70
2022-11-17T07:14:46.140Z,28.05
2022-11-17T07:17:13.728Z,79.63
2022-11-17T07:19:41.520Z,79.82
2022-11-17T07:22:10.318Z,85.53
2022-11-17T07:24:45.348Z,85.07
2022-11-17T07:27:13.735Z,89.90
2022-11-17T07:29:41.651Z,89.00
2022-11-17T07:32:11.930Z,80.55
2022-11-17T07:37:07.562Z,90.05
2022-11-17T07:39:35.213Z,83.15
2022-11-17T07:42:15.633Z,5.53
2022-11-17T07:44:43.608Z,8.27
2022-11-17T07:47:11.401Z,52.03
2022-11-17T07:49:39.227Z,85.63
2022-11-17T07:52:07.627Z,88.78
2022-11-17T07:54:35.205Z,90.82
2022-11-17T07:57:02.791Z,84.60
2022-11-17T07:59:33.451Z,85.88
2022-11-17T08:02:01.039Z,86.22
2022-11-17T08:04:30.509Z,86.82
2022-11-17T08:06:58.338Z,87.55
2022-11-17T08:09:26.066Z,79.75
2022-11-17T08:11:54.070Z,6.28
2022-11-17T08:14:22.488Z,8.30
2022-11-17T08:16:50.290Z,8.77
2022-11-17T08:19:17.864Z,6.43
2022-11-17T08:21:45.937Z,8.80
2022-11-17T08:24:13.627Z,12.20
2022-11-17T08:26:41.500Z,7.47
2022-11-17T08:29:09.490Z,6.70
2022-11-17T08:31:37.345Z,7.60
2022-11-17T08:34:05.155Z,8.52
2022-11-17T08:36:32.987Z,9.15
2022-11-17T08:39:01.256Z,8.10
2022-11-17T08:41:29.151Z,9.30
2022-11-17T08:43:57.014Z,8.38
2022-11-17T08:46:26.119Z,7.05
2022-11-17T08:48:57.120Z,9.65
2022-11-17T08:51:25.255Z,3.70
2022-11-17T08:53:53.483Z,9.15
2022-11-17T08:56:21.253Z,7.07
2022-11-17T08:58:49.469Z,4.15
2022-11-17T09:01:17.391Z,8.05
2022-11-17T09:03:46.762Z,10.88
2022-11-17T09:06:15.723Z,7.35
2022-11-17T09:08:46.703Z,5.05
2022-11-17T09:11:14.984Z,4.93
2022-11-17T09:13:42.747Z,39.33
2022-11-17T09:16:12.353Z,7.30
2022-11-17T09:18:41.806Z,6.07
2022-11-17T09:21:15.351Z,8.32
2022-11-17T09:23:45.204Z,65.68
2022-11-17T09:26:14.352Z,4.88
2022-11-17T09:28:42.552Z,8.75
2022-11-17T09:31:13.012Z,41.85
2022-11-17T09:33:40.909Z,6.80
2022-11-17T09:36:09.072Z,13.25
2022-11-17T09:38:37.910Z,5.82
2022-11-17T09:41:28.866Z,6.07
2022-11-17T09:44:08.254Z,36.42
2022-11-17T09:46:36.032Z,27.08
2022-11-17T09:49:30.372Z,6.45
2022-11-17T09:52:02.148Z,9.02
2022-11-17T09:54:43.327Z,65.47
2022-11-17T09:57:26.244Z,63.22
2022-11-17T10:00:29.848Z,66.20
2022-11-17T10:02:57.949Z,61.97
2022-11-17T10:05:28.618Z,68.07
2022-11-17T10:07:58.431Z,73.82
2022-11-17T10:10:45.077Z,71.93
2022-11-17T10:13:24.550Z,71.95
2022-11-17T10:16:14.268Z,81.75
2022-11-17T10:18:42.080Z,83.85
2022-11-17T10:21:10.325Z,74.97
2022-11-17T10:23:46.263Z,79.88
2022-11-17T10:26:15.492Z,79.22
2022-11-17T10:28:43.157Z,87.13
2022-11-17T10:31:18.893Z,4.90
2022-11-17T10:33:50.746Z,5.53
2022-11-17T10:36:26.157Z,8.63
2022-11-17T10:38:55.166Z,6.85
2022-11-17T10:41:45.323Z,7.07
2022-11-17T10:44:21.114Z,4.25
2022-11-17T10:47:01.664Z,5.10
2022-11-17T10:49:34.111Z,4.95
2022-11-17T10:52:06.176Z,8.95
2022-11-17T10:54:33.844Z,6.03
2022-11-17T10:57:01.537Z,6.25
2022-11-17T10:59:32.248Z,4.93
2022-11-17T11:02:32.766Z,4.45
2022-11-17T11:05:11.966Z,4.03
2022-11-17T11:07:40.140Z,3.60
2022-11-17T11:10:26.475Z,4.05
2022-11-17T11:13:11.445Z,7.57
2022-11-17T11:15:39.080Z,5.78
2022-11-17T11:18:17.550Z,4.40
2022-11-17T11:21:12.635Z,3.10
2022-11-17T11:23:55.923Z,4.75
2022-11-17T11:26:44.900Z,6.22
2022-11-17T11:29:39.705Z,11.77
2022-11-17T11:32:41.741Z,24.88
2022-11-17T11:35:44.910Z,34.38
2022-11-17T11:38:12.525Z,32.42
2022-11-17T11:40:42.942Z,48.83
2022-11-17T11:43:38.224Z,57.75
2022-11-17T11:46:43.327Z,57.05
2022-11-17T11:49:32.613Z,47.20
2022-11-17T11:52:02.734Z,49.28
2022-11-17T11:54:33.474Z,56.25
2022-11-17T11:57:01.743Z,60.10
2022-11-17T11:59:40.228Z,65.00
2022-11-17T12:02:16.937Z,54.22
2022-11-17T12:04:56.223Z,64.00
2022-11-17T12:07:53.972Z,62.20
2022-11-17T12:10:48.327Z,60.05
2022-11-17T12:13:18.678Z,59.67
2022-11-17T12:15:46.405Z,66.28
2022-11-17T12:18:14.236Z,72.25
2022-11-17T12:20:52.052Z,73.30
2022-11-17T12:23:47.856Z,2.38
2022-11-17T12:26:33.065Z,3.72
2022-11-17T12:29:22.220Z,38.92
2022-11-17T12:31:52.870Z,4.35
2022-11-17T12:34:25.139Z,4.15
2022-11-17T12:37:20.195Z,7.43
2022-11-17T12:39:57.325Z,3.08
2022-11-17T12:42:25.162Z,2.63
2022-11-17T12:45:12.704Z,3.58
2022-11-17T12:47:50.751Z,2.13
2022-11-17T12:51:10.500Z,18.35
2022-11-17T12:53:38.112Z,59.60
2022-11-17T12:56:23.768Z,54.50
2022-11-17T12:59:30.140Z,46.72
2022-11-17T13:02:13.090Z,61.33
2022-11-17T13:07:22.961Z,38.35
2022-11-17T13:09:57.126Z,65.95
2022-11-17T13:12:33.328Z,47.13
2022-11-17T13:15:02.973Z,3.22
2022-11-17T13:17:32.692Z,59.67
2022-11-17T13:20:18.569Z,2.67
2022-11-17T13:23:13.927Z,64.72
2022-11-17T13:25:42.109Z,69.35
2022-11-17T13:28:30.607Z,64.00
2022-11-17T13:30:58.641Z,68.88
2022-11-17T13:33:39.558Z,67.38
2022-11-17T13:36:25.051Z,39.38
2022-11-17T13:38:54.819Z,2.63
2022-11-17T13:41:24.777Z,2.92
2022-11-17T13:43:52.869Z,70.50
2022-11-17T13:46:20.716Z,58.38
2022-11-17T13:48:50.268Z,56.17
2022-11-17T13:51:26.860Z,69.13
2022-11-17T13:53:58.890Z,80.20
2022-11-17T13:56:36.913Z,69.13
2022-11-17T13:59:26.470Z,78.65
2022-11-17T14:02:15.532Z,70.07
2022-11-17T14:05:05.652Z,2.83
2022-11-17T14:07:38.480Z,1.95
2022-11-17T14:10:34.352Z,2.17
2022-11-17T14:13:01.692Z,1.38
2022-11-17T14:15:33.199Z,1.98
2022-11-17T14:18:03.727Z,2.35
2022-11-17T14:20:33.332Z,2.25
2022-11-17T14:23:19.873Z,1.92
2022-11-17T14:25:53.205Z,2.47
2022-11-17T14:28:24.161Z,3.05
2022-11-17T14:30:52.674Z,2.55
2022-11-17T14:33:20.417Z,3.30
2022-11-17T14:35:59.314Z,2.15
2022-11-17T14:38:27.088Z,2.45
2022-11-17T14:40:55.119Z,1.50
2022-11-17T14:43:22.866Z,1.17
2022-11-17T14:45:51.306Z,2.28
2022-11-17T14:48:20.208Z,2.60
2022-11-17T14:50:48.425Z,1.55
2022-11-17T14:53:16.157Z,0.98
2022-11-17T14:55:43.875Z,0.98
2022-11-17T14:58:11.602Z,1.17
2022-11-17T15:00:39.271Z,1.15
2022-11-17T15:03:06.832Z,0.60
2022-11-17T15:05:34.789Z,3.17
2022-11-17T15:08:03.219Z,0.80
2022-11-17T15:10:30.913Z,0.70
2022-11-17T15:12:58.551Z,0.80
2022-11-17T15:15:27.083Z,1.00
2022-11-17T15:17:54.829Z,1.08
2022-11-17T15:20:22.733Z,0.70
2022-11-17T15:22:51.245Z,1.30
2022-11-17T15:25:19.366Z,0.80
2022-11-17T15:27:47.058Z,1.30
2022-11-17T15:30:15.305Z,1.20
2022-11-17T15:32:42.941Z,0.68
2022-11-17T15:35:10.618Z,0.47
2022-11-17T15:37:37.883Z,1.33
2022-11-17T15:40:06.112Z,1.25
2022-11-17T15:42:33.715Z,2.53
2022-11-17T15:45:01.380Z,1.20
2022-11-17T15:47:29.001Z,2.53
2022-11-17T15:49:58.627Z,1.00
2022-11-17T15:52:48.799Z,1.05
2022-11-17T15:55:14.055Z,1.55
2022-11-17T15:57:41.435Z,1.27
2022-11-17T16:00:09.988Z,1.00
2022-11-17T16:02:37.659Z,0.55
2022-11-17T16:05:05.949Z,0.98
2022-11-17T16:07:33.664Z,1.02
2022-11-17T16:10:02.326Z,1.33
2022-11-17T16:12:29.902Z,0.60
2022-11-17T16:14:57.562Z,0.77
2022-11-17T16:17:25.058Z,0.80
2022-11-17T16:19:52.647Z,0.70
2022-11-17T16:22:21.867Z,1.10
2022-11-17T16:24:49.795Z,0.70
2022-11-17T16:27:17.454Z,0.55
2022-11-17T16:29:45.138Z,3.85
2022-11-17T16:32:12.707Z,1.50
2022-11-17T16:34:41.561Z,1.00
2022-11-17T16:37:09.266Z,0.85
2022-11-17T16:39:36.602Z,2.70
2022-11-17T16:42:04.138Z,6.15
2022-11-17T16:44:31.785Z,35.33
2022-11-17T16:46:59.656Z,45.20
2022-11-17T16:49:27.463Z,45.17
2022-11-17T16:51:55.222Z,48.78
2022-11-17T16:54:22.852Z,51.63
2022-11-17T16:56:50.452Z,48.55
2022-11-17T16:59:18.143Z,55.40
2022-11-17T17:01:45.966Z,57.55
2022-11-17T17:04:13.784Z,61.10
2022-11-17T17:06:43.641Z,61.90
2022-11-17T17:09:12.608Z,61.13
2022-11-17T17:11:40.504Z,60.20
2022-11-17T17:14:11.675Z,63.53
2022-11-17T17:16:39.337Z,69.65
2022-11-17T17:19:08.090Z,76.57
2022-11-17T17:21:38.001Z,71.65
2022-11-17T17:24:06.199Z,74.68
2022-11-17T17:26:35.402Z,81.43
2022-11-17T17:29:05.972Z,72.95
2022-11-17T17:31:38.572Z,79.57
2022-11-17T17:34:07.139Z,79.00
2022-11-17T17:36:35.352Z,78.78
2022-11-17T17:39:03.536Z,85.63
2022-11-17T17:41:33.473Z,77.47
2022-11-17T17:44:06.101Z,1.05
2022-11-17T17:46:38.725Z,77.88
2022-11-17T17:49:06.733Z,75.65
2022-11-17T17:51:38.269Z,78.55
2022-11-17T17:54:06.101Z,74.78
2022-11-17T17:56:34.669Z,44.53
2022-11-17T17:59:02.313Z,76.75
2022-11-17T18:01:33.234Z,82.57
2022-11-17T18:04:04.802Z,81.43
2022-11-17T18:06:43.202Z,82.03
2022-11-17T18:09:12.476Z,78.07
2022-11-17T18:11:46.093Z,0.73
2022-11-17T18:14:13.863Z,55.30
2022-11-17T18:16:41.524Z,79.00
2022-11-17T18:19:10.092Z,70.13
2022-11-17T18:21:37.886Z,63.38
2022-11-17T18:24:06.216Z,49.22
2022-11-17T18:26:35.464Z,22.55
2022-11-17T18:29:08.183Z,0.80
2022-11-17T18:31:37.003Z,0.50
2022-11-17T18:34:21.345Z,3.08
2022-11-17T18:36:49.836Z,0.93
2022-11-17T18:39:17.666Z,54.17
2022-11-17T18:41:46.051Z,54.55
2022-11-17T18:44:14.633Z,74.53
2022-11-17T18:46:42.329Z,79.25
2022-11-17T18:49:09.799Z,77.78
2022-11-17T18:51:37.200Z,84.50
2022-11-17T18:54:04.934Z,92.95
2022-11-17T18:56:35.349Z,98.32
2022-11-17T18:59:04.185Z,99.70
2022-11-17T19:01:31.944Z,89.85
2022-11-17T19:04:01.153Z,96.70
2022-11-17T19:06:30.468Z,95.68
2022-11-17T19:09:01.251Z,103.22
2022-11-17T19:11:33.993Z,49.50
2022-11-17T19:14:02.468Z,54.08
2022-11-17T19:16:30.609Z,0.32
2022-11-17T19:18:59.254Z,0.30
2022-11-17T19:21:31.887Z,0.45
2022-11-17T19:24:00.828Z,0.63
2022-11-17T19:26:31.040Z,36.00
2022-11-17T19:31:26.418Z,51.33
2022-11-17T19:33:54.390Z,74.57
2022-11-17T19:36:30.428Z,80.78
2022-11-17T19:38:58.930Z,80.57
2022-11-17T19:41:37.188Z,95.78
2022-11-17T19:44:07.392Z,94.30
2022-11-17T19:51:36.969Z,99.68
2022-11-17T19:54:10.536Z,94.78
2022-11-17T19:56:38.556Z,0.15
2022-11-17T19:59:07.652Z,0.52
2022-11-17T20:01:37.575Z,0.60
2022-11-17T20:04:06.534Z,0.30
2022-11-17T20:06:39.100Z,64.32
2022-11-17T20:09:10.959Z,12.27
2022-11-17T20:11:38.870Z,80.95
2022-11-17T20:14:06.241Z,0.50
2022-11-17T20:16:33.889Z,3.33
2022-11-17T20:19:02.883Z,76.75
2022-11-17T20:21:31.318Z,0.68
2022-11-17T20:24:01.169Z,0.30
2022-11-17T20:26:30.424Z,0.45
2022-11-17T20:28:58.651Z,0.43
2022-11-17T20:31:28.825Z,0.60
2022-11-17T20:36:29.883Z,0.32
2022-11-17T20:39:02.664Z,0.30
2022-11-17T20:41:30.538Z,0.20
2022-11-17T20:43:59.973Z,0.40
2022-11-17T20:46:27.785Z,0.52
2022-11-17T20:48:55.343Z,0.20
2022-11-17T20:51:24.243Z,0.40
2022-11-17T20:53:52.351Z,0.40
2022-11-17T20:56:20.151Z,0.38
2022-11-17T20:58:47.851Z,0.30
2022-11-17T21:01:21.255Z,0.50
2022-11-17T21:03:49.304Z,0.32
2022-11-17T21:06:17.261Z,0.60
2022-11-17T21:08:45.759Z,0.50
2022-11-17T21:11:34.207Z,0.20
2022-11-17T21:14:01.940Z,0.60
2022-11-17T21:16:29.708Z,0.20
2022-11-17T21:18:57.299Z,0.20
2022-11-17T21:21:24.933Z,0.47
2022-11-17T21:23:56.027Z,0.55
2022-11-17T21:26:24.776Z,0.40
2022-11-17T21:28:52.626Z,0.30
2022-11-17T21:31:23.545Z,0.73
2022-11-17T21:33:54.946Z,24.10
2022-11-17T21:36:23.469Z,0.30
2022-11-17T21:38:51.280Z,0.40
2022-11-17T21:41:21.523Z,32.28
2022-11-17T21:46:19.672Z,64.03
2022-11-17T21:48:47.916Z,0.25
2022-11-17T21:51:18.148Z,0.30
2022-11-17T21:56:13.969Z,71.13
2022-11-17T21:58:41.805Z,77.43
2022-11-17T22:01:10.264Z,0.30
2022-11-17T22:03:38.369Z,48.17
2022-11-17T22:06:32.401Z,0.38
2022-11-17T22:09:00.587Z,0.57
2022-11-17T22:11:36.181Z,0.30
2022-11-17T22:14:09.302Z,56.05
2022-11-17T22:16:41.037Z,86.93
2022-11-17T22:19:09.159Z,0.40
2022-11-17T22:21:36.891Z,0.32
2022-11-17T22:24:06.225Z,0.60
2022-11-17T22:26:35.854Z,0.40
2022-11-17T22:29:03.998Z,0.20
2022-11-17T22:31:31.499Z,0.60
2022-11-17T22:33:59.047Z,0.28
2022-11-17T22:36:26.656Z,0.60
2022-11-17T22:38:54.340Z,10.27
2022-11-17T22:41:23.810Z,62.83
2022-11-17T22:43:53.477Z,16.80
2022-11-17T22:46:22.914Z,88.97
2022-11-17T22:48:50.602Z,80.18
2022-11-17T22:51:38.044Z,28.90
2022-11-17T22:54:06.709Z,75.15
2022-11-17T22:56:34.391Z,0.20
2022-11-17T22:59:02.165Z,0.38
2022-11-17T23:01:29.717Z,54.83
2022-11-17T23:03:57.544Z,0.25
2022-11-17T23:06:27.217Z,0.40
2022-11-17T23:08:55.691Z,0.20
2022-11-17T23:11:37.129Z,0.38
2022-11-17T23:14:08.125Z,0.25
2022-11-17T23:16:36.796Z,0.55
2022-11-17T23:19:05.064Z,0.20
2022-11-17T23:21:32.876Z,0.40
2022-11-17T23:24:01.425Z,0.17
2022-11-17T23:26:29.116Z,0.60
2022-11-17T23:28:58.107Z,0.43
2022-11-17T23:31:27.943Z,0.57
2022-11-17T23:33:55.405Z,0.35
2022-11-17T23:36:23.695Z,0.43
2022-11-17T23:38:52.075Z,0.75
2022-11-17T23:41:21.105Z,0.50
2022-11-17T23:43:52.217Z,0.63
2022-11-17T23:46:20.969Z,0.30
2022-11-17T23:48:48.819Z,38.97
2022-11-17T23:51:21.396Z,85.63
2022-11-17T23:53:49.728Z,84.10
2022-11-17T23:56:19.046Z,96.88
2022-11-17T23:58:46.938Z,110.95
